Current | Forecast
Updated: 8:00 AM +05 on March 29, 2017
Observed at Orsk, Russia
Temperature 32°F
Windchill 19°F
Humidity 100%
Dew Point 32°F
Wind South at 25 mph
Pressure 29.44 in (Falling)
Conditions Light Snow
Visibility -
UV 0 out of 16
Clouds Overcast (OVC) : 700 ft
Yesterday's Maximum 36°F
Yesterday's Minimum 18°F approx.
Yesterday's Heating Degree Days 38 approx.
Sunrise6:49 AM +05
Sunset7:35 PM +05
Moon Rise7:43 AM +05
Moon Set9:15 PM +05
Moon PhaseMoon Phase
New Moon
Raw METARMETAR UWOR 290300Z 19011MPS 4400 -SN OVC007 00/00 Q0997 R25/550250 NOSIG RMK QFE724/0966


Monday
. High: 71° F.
Tuesday
. High: 75° F.
Wednesday
. High: 75° F.
Thursday
. High: 73° F.
Friday
. High: 66° F.
Saturday
. High: 55° F.
Sunday
. High: 53° F.
Monday
. High: 59° F.

Units: English | Metric

Find the Weather for any City, State or Zipcode, or Country:

U.S. State List | Severe Weather | Tropical Storms | Ski Conditions
United States | Canada | Central America | South America | Asia | Europe | Australia | Africa | Islands

Weather Underground

© Copyright 2017
The Weather Company, LLC